createdAt,value
2022-09-09T00:02:16.847Z,100.00
2022-09-09T00:05:02.438Z,100.00
2022-09-09T00:07:44.403Z,100.00
2022-09-09T00:10:17.227Z,100.00
2022-09-09T00:12:58.743Z,100.00
2022-09-09T00:15:34.654Z,100.00
2022-09-09T00:18:15.236Z,100.00
2022-09-09T00:20:48.003Z,100.00
2022-09-09T00:23:29.288Z,100.00
2022-09-09T00:26:24.904Z,100.00
2022-09-09T00:29:06.566Z,100.00
2022-09-09T00:31:38.292Z,100.00
2022-09-09T00:34:25.086Z,100.00
2022-09-09T00:36:56.775Z,100.00
2022-09-09T00:39:38.957Z,100.00
2022-09-09T00:42:30.707Z,100.00
2022-09-09T00:45:18.622Z,100.00
2022-09-09T00:47:52.878Z,100.00
2022-09-09T00:50:37.800Z,100.00
2022-09-09T00:53:22.114Z,100.00
2022-09-09T00:55:54.762Z,100.00
2022-09-09T00:58:24.616Z,100.00
2022-09-09T01:01:00.421Z,100.00
2022-09-09T01:03:33.242Z,100.00
2022-09-09T01:06:24.149Z,100.00
2022-09-09T01:09:11.846Z,100.00
2022-09-09T01:12:07.165Z,100.00
2022-09-09T01:14:41.039Z,100.00
2022-09-09T01:17:16.473Z,100.00
2022-09-09T01:19:53.984Z,100.00
2022-09-09T01:22:53.811Z,100.00
2022-09-09T01:25:26.773Z,100.00
2022-09-09T01:28:15.738Z,100.00
2022-09-09T01:30:45.873Z,100.00
2022-09-09T01:33:17.840Z,100.00
2022-09-09T01:35:56.142Z,100.00
2022-09-09T01:38:28.571Z,100.00
2022-09-09T01:40:59.436Z,100.00
2022-09-09T01:43:31.969Z,100.00
2022-09-09T01:46:03.999Z,100.00
2022-09-09T01:48:34.022Z,100.00
2022-09-09T01:51:06.360Z,100.00
2022-09-09T01:53:36.536Z,100.00
2022-09-09T01:56:33.832Z,100.00
2022-09-09T01:59:29.821Z,100.00
2022-09-09T02:02:22.413Z,100.00
2022-09-09T02:05:09.052Z,100.00
2022-09-09T02:07:45.101Z,100.00
2022-09-09T02:10:25.602Z,100.00
2022-09-09T02:12:59.842Z,100.00
2022-09-09T02:15:35.158Z,100.00
2022-09-09T02:18:08.978Z,100.00
2022-09-09T02:20:43.868Z,100.00
2022-09-09T02:23:14.873Z,100.00
2022-09-09T02:25:47.287Z,100.00
2022-09-09T02:28:21.539Z,100.00
2022-09-09T02:30:54.895Z,100.00
2022-09-09T02:33:29.657Z,100.00
2022-09-09T02:36:03.487Z,100.00
2022-09-09T02:38:36.720Z,100.00
2022-09-09T02:41:08.499Z,100.00
2022-09-09T02:43:38.344Z,100.00
2022-09-09T02:46:24.971Z,100.00
2022-09-09T02:49:07.021Z,100.00
2022-09-09T02:51:50.149Z,100.00
2022-09-09T02:54:37.226Z,100.00
2022-09-09T02:57:23.722Z,100.00
2022-09-09T02:59:54.543Z,100.00
2022-09-09T03:02:25.618Z,100.00
2022-09-09T03:04:57.246Z,100.00
2022-09-09T03:07:28.551Z,100.00
2022-09-09T03:09:59.268Z,100.00
2022-09-09T03:12:29.717Z,100.00
2022-09-09T03:14:59.499Z,100.00
2022-09-09T03:17:29.538Z,100.00
2022-09-09T03:19:59.849Z,100.00
2022-09-09T03:22:29.643Z,100.00
2022-09-09T03:25:00.988Z,100.00
2022-09-09T03:27:31.863Z,100.00
2022-09-09T03:30:01.512Z,100.00
2022-09-09T03:32:32.295Z,100.00
2022-09-09T03:35:02.524Z,100.00
2022-09-09T03:37:33.296Z,100.00
2022-09-09T03:40:03.601Z,100.00
2022-09-09T03:42:33.621Z,100.00
2022-09-09T03:45:03.399Z,100.00
2022-09-09T03:47:34.145Z,100.00
2022-09-09T03:50:11.486Z,100.00
2022-09-09T03:52:43.725Z,100.00
2022-09-09T03:55:15.436Z,100.00
2022-09-09T03:57:45.371Z,100.00
2022-09-09T04:00:15.497Z,100.00
2022-09-09T04:02:54.092Z,100.00
2022-09-09T04:05:23.635Z,100.00
2022-09-09T04:07:53.679Z,100.00
2022-09-09T04:10:23.624Z,100.00
2022-09-09T04:12:55.167Z,100.00
2022-09-09T04:15:24.976Z,100.00
2022-09-09T04:17:54.745Z,100.00
2022-09-09T04:20:24.526Z,100.00
2022-09-09T04:22:54.844Z,100.00
2022-09-09T04:25:24.799Z,100.00
2022-09-09T04:27:59.524Z,100.00
2022-09-09T04:30:29.560Z,100.00
2022-09-09T04:32:59.624Z,100.00
2022-09-09T04:35:29.472Z,100.00
2022-09-09T04:38:00.012Z,100.00
2022-09-09T04:40:30.751Z,100.00
2022-09-09T04:43:01.550Z,100.00
2022-09-09T04:45:31.983Z,100.00
2022-09-09T04:48:01.795Z,100.00
2022-09-09T04:50:32.846Z,100.00
2022-09-09T04:53:03.905Z,100.00
2022-09-09T04:55:35.774Z,100.00
2022-09-09T04:58:10.378Z,100.00
2022-09-09T05:00:40.245Z,100.00
2022-09-09T05:03:10.409Z,100.00
2022-09-09T05:05:40.198Z,100.00
2022-09-09T05:08:11.020Z,100.00
2022-09-09T05:10:42.821Z,100.00
2022-09-09T05:13:12.607Z,100.00
2022-09-09T05:15:44.028Z,100.00
2022-09-09T05:18:13.608Z,100.00
2022-09-09T05:20:43.839Z,100.00
2022-09-09T05:23:14.519Z,100.00
2022-09-09T05:25:44.545Z,100.00
2022-09-09T05:28:14.396Z,100.00
2022-09-09T05:30:44.276Z,100.00
2022-09-09T05:33:14.164Z,100.00
2022-09-09T05:35:44.202Z,100.00
2022-09-09T05:38:15.145Z,100.00
2022-09-09T05:40:48.589Z,100.00
2022-09-09T05:43:18.721Z,100.00
2022-09-09T05:45:53.090Z,100.00
2022-09-09T05:48:23.028Z,100.00
2022-09-09T05:50:56.109Z,100.00
2022-09-09T05:53:26.143Z,100.00
2022-09-09T05:56:15.197Z,100.00
2022-09-09T05:58:48.078Z,100.00
2022-09-09T06:01:20.882Z,100.00
2022-09-09T06:03:52.942Z,100.00
2022-09-09T06:06:28.630Z,100.00
2022-09-09T06:09:00.142Z,100.00
2022-09-09T06:11:32.797Z,100.00
2022-09-09T06:14:03.473Z,100.00
2022-09-09T06:16:34.546Z,100.00
2022-09-09T06:19:04.885Z,100.00
2022-09-09T06:21:41.130Z,100.00
2022-09-09T06:24:11.210Z,100.00
2022-09-09T06:26:42.509Z,100.00
2022-09-09T06:29:14.370Z,100.00
2022-09-09T06:31:44.919Z,100.00
2022-09-09T06:34:16.422Z,100.00
2022-09-09T06:36:47.974Z,100.00
2022-09-09T06:39:17.456Z,100.00
2022-09-09T06:41:48.315Z,100.00
2022-09-09T06:44:36.046Z,100.00
2022-09-09T06:47:07.132Z,100.00
2022-09-09T06:49:37.166Z,100.00
2022-09-09T06:52:10.417Z,100.00
2022-09-09T06:54:41.285Z,100.00
2022-09-09T06:59:43.562Z,100.00
2022-09-09T07:02:13.267Z,100.00
2022-09-09T07:04:44.161Z,100.00
2022-09-09T07:07:15.847Z,100.00
2022-09-09T07:09:47.207Z,100.00
2022-09-09T07:12:17.565Z,100.00
2022-09-09T07:14:49.356Z,100.00
2022-09-09T07:17:18.845Z,100.00
2022-09-09T07:19:49.220Z,100.00
2022-09-09T07:22:21.182Z,100.00
2022-09-09T07:24:51.011Z,100.00
2022-09-09T07:27:22.135Z,100.00
2022-09-09T07:29:54.940Z,100.00
2022-09-09T07:32:26.563Z,100.00
2022-09-09T07:34:57.099Z,100.00
2022-09-09T07:37:27.830Z,100.00
2022-09-09T07:39:57.479Z,100.00
2022-09-09T07:42:27.349Z,100.00
2022-09-09T07:44:57.576Z,100.00
2022-09-09T07:47:28.083Z,100.00
2022-09-09T07:49:57.573Z,100.00
2022-09-09T07:52:28.971Z,100.00
2022-09-09T07:55:01.612Z,100.00
2022-09-09T07:57:32.071Z,100.00
2022-09-09T08:00:01.752Z,100.00
2022-09-09T08:02:33.258Z,100.00
2022-09-09T08:05:03.606Z,100.00
2022-09-09T08:07:33.727Z,100.00
2022-09-09T08:10:04.295Z,100.00
2022-09-09T08:12:36.340Z,100.00
2022-09-09T08:15:07.138Z,100.00
2022-09-09T08:17:38.508Z,100.00
2022-09-09T08:20:09.141Z,100.00
2022-09-09T08:22:38.811Z,100.00
2022-09-09T08:25:09.427Z,100.00
2022-09-09T08:27:39.963Z,100.00
2022-09-09T08:30:10.976Z,100.00
2022-09-09T08:32:43.406Z,100.00
2022-09-09T08:35:12.590Z,100.00
2022-09-09T08:37:42.342Z,100.00
2022-09-09T08:40:15.323Z,100.00
2022-09-09T08:42:48.465Z,100.00
2022-09-09T08:45:26.803Z,100.00
2022-09-09T08:48:02.391Z,100.00
2022-09-09T08:50:39.490Z,100.00
2022-09-09T08:53:13.867Z,100.00
2022-09-09T08:56:00.449Z,100.00
2022-09-09T08:58:35.007Z,100.00
2022-09-09T09:01:12.401Z,100.00
2022-09-09T09:04:03.969Z,100.00
2022-09-09T09:06:39.528Z,100.00
2022-09-09T09:09:48.347Z,100.00
2022-09-09T09:12:21.206Z,100.00
2022-09-09T09:14:52.055Z,100.00
2022-09-09T09:17:24.661Z,100.00
2022-09-09T09:19:54.883Z,100.00
2022-09-09T09:22:37.286Z,100.00
2022-09-09T09:25:19.096Z,100.00
2022-09-09T09:27:56.140Z,100.00
2022-09-09T09:30:30.741Z,100.00
2022-09-09T09:33:21.550Z,100.00
2022-09-09T09:35:54.661Z,100.00
2022-09-09T09:41:01.832Z,100.00
2022-09-09T09:43:37.798Z,100.00
2022-09-09T09:46:21.143Z,100.00
2022-09-09T09:49:06.711Z,100.00
2022-09-09T09:51:37.625Z,100.00
2022-09-09T09:54:14.343Z,100.00
2022-09-09T09:56:45.915Z,100.00
2022-09-09T09:59:38.800Z,100.00
2022-09-09T10:01:56.240Z,100.00
2022-09-09T10:04:27.222Z,100.00
2022-09-09T10:06:57.464Z,100.00
2022-09-09T10:09:35.357Z,100.00
2022-09-09T10:12:23.371Z,100.00
2022-09-09T10:15:01.946Z,100.00
2022-09-09T10:17:37.685Z,100.00
2022-09-09T10:20:25.074Z,100.00
2022-09-09T10:22:56.928Z,100.00
2022-09-09T10:25:29.762Z,100.00
2022-09-09T10:28:19.154Z,100.00
2022-09-09T10:31:10.139Z,100.00
2022-09-09T10:33:54.584Z,100.00
2022-09-09T10:36:28.362Z,100.00
2022-09-09T10:39:04.128Z,100.00
2022-09-09T10:41:48.537Z,100.00
2022-09-09T10:44:30.440Z,97.63
2022-09-09T10:47:19.439Z,100.00
2022-09-09T10:50:01.324Z,100.00
2022-09-09T10:52:45.503Z,100.00
2022-09-09T10:55:29.236Z,100.00
2022-09-09T10:57:58.684Z,97.87
2022-09-09T11:00:44.132Z,100.00
2022-09-09T11:03:22.172Z,100.00
2022-09-09T11:05:54.929Z,100.00
2022-09-09T11:08:30.957Z,100.00
2022-09-09T11:11:13.160Z,99.38
2022-09-09T11:13:45.965Z,93.01
2022-09-09T11:16:37.779Z,96.33
2022-09-09T11:19:35.213Z,94.08
2022-09-09T11:22:09.206Z,95.33
2022-09-09T11:24:44.750Z,95.33
2022-09-09T11:27:22.972Z,98.22
2022-09-09T11:30:37.839Z,100.00
2022-09-09T11:33:15.713Z,100.00
2022-09-09T11:36:22.060Z,99.71
2022-09-09T11:38:58.435Z,100.00
2022-09-09T11:41:33.128Z,100.00
2022-09-09T11:44:05.940Z,100.00
2022-09-09T11:46:39.309Z,100.00
2022-09-09T11:49:30.270Z,92.94
2022-09-09T11:52:00.057Z,92.16
2022-09-09T11:54:37.402Z,93.55
2022-09-09T11:57:08.620Z,93.55
2022-09-09T11:59:38.647Z,92.32
2022-09-09T12:02:20.367Z,93.20
2022-09-09T12:04:53.013Z,95.89
2022-09-09T12:07:34.839Z,89.14
2022-09-09T12:10:25.609Z,99.19
2022-09-09T12:12:54.393Z,93.20
2022-09-09T12:15:28.414Z,96.72
2022-09-09T12:18:03.485Z,99.85
2022-09-09T12:20:37.017Z,96.46
2022-09-09T12:23:40.366Z,100.00
2022-09-09T12:26:13.061Z,100.00
2022-09-09T12:28:51.893Z,100.00
2022-09-09T12:31:35.639Z,100.00
2022-09-09T12:34:14.717Z,97.17
2022-09-09T12:36:53.203Z,100.00
2022-09-09T12:39:31.174Z,100.00
2022-09-09T12:42:01.074Z,100.00
2022-09-09T12:44:30.859Z,98.66
2022-09-09T12:47:03.670Z,99.35
2022-09-09T12:49:39.491Z,95.49
2022-09-09T12:52:13.165Z,94.37
2022-09-09T12:54:47.655Z,93.56
2022-09-09T12:57:17.505Z,94.27
2022-09-09T12:59:47.335Z,89.62
2022-09-09T13:02:25.336Z,95.09
2022-09-09T13:04:56.919Z,95.58
2022-09-09T13:07:27.365Z,95.43
2022-09-09T13:09:56.912Z,87.90
2022-09-09T13:12:26.837Z,87.90
2022-09-09T13:14:58.379Z,87.26
2022-09-09T13:17:32.473Z,87.34
2022-09-09T13:20:03.562Z,88.40
2022-09-09T13:22:39.821Z,89.35
2022-09-09T13:25:12.738Z,91.69
2022-09-09T13:27:44.389Z,88.45
2022-09-09T13:30:36.826Z,87.40
2022-09-09T13:33:14.402Z,91.06
2022-09-09T13:35:59.960Z,89.34
2022-09-09T13:38:32.938Z,86.37
2022-09-09T13:41:05.779Z,87.99
2022-09-09T13:43:51.289Z,89.01
2022-09-09T13:46:42.798Z,90.68
2022-09-09T13:49:15.765Z,88.54
2022-09-09T13:51:51.658Z,83.60
2022-09-09T13:54:23.936Z,83.60
2022-09-09T13:56:54.897Z,83.73
2022-09-09T13:59:30.687Z,86.33
2022-09-09T14:01:56.375Z,84.07
2022-09-09T14:04:26.313Z,82.81
2022-09-09T14:06:57.043Z,83.43
2022-09-09T14:09:26.810Z,82.26
2022-09-09T14:11:56.730Z,86.56
2022-09-09T14:14:26.797Z,87.11
2022-09-09T14:16:56.270Z,87.74
2022-09-09T14:19:25.896Z,83.91
2022-09-09T14:21:55.611Z,82.88
2022-09-09T14:24:26.099Z,85.00
2022-09-09T14:26:55.004Z,92.00
2022-09-09T14:29:26.435Z,93.15
2022-09-09T14:31:56.513Z,89.83
2022-09-09T14:34:26.281Z,86.75
2022-09-09T14:36:56.850Z,91.07
2022-09-09T14:39:27.216Z,91.07
2022-09-09T14:41:57.142Z,91.78
2022-09-09T14:44:27.205Z,88.99
2022-09-09T14:46:56.981Z,84.55
2022-09-09T14:49:26.753Z,86.77
2022-09-09T14:51:56.510Z,95.52
2022-09-09T14:54:26.265Z,96.84
2022-09-09T14:56:55.821Z,94.60
2022-09-09T14:59:25.654Z,95.69
2022-09-09T15:01:55.670Z,100.00
2022-09-09T15:04:26.506Z,97.85
2022-09-09T15:06:56.381Z,96.99
2022-09-09T15:09:26.421Z,100.00
2022-09-09T15:11:56.127Z,100.00
2022-09-09T15:14:27.039Z,100.00
2022-09-09T15:16:56.825Z,100.00
2022-09-09T15:19:26.592Z,100.00
2022-09-09T15:21:56.403Z,100.00
2022-09-09T15:24:27.695Z,100.00
2022-09-09T15:26:58.645Z,100.00
2022-09-09T15:29:28.748Z,100.00
2022-09-09T15:31:58.638Z,100.00
2022-09-09T15:34:28.428Z,100.00
2022-09-09T15:36:58.201Z,100.00
2022-09-09T15:39:28.123Z,100.00
2022-09-09T15:41:58.686Z,100.00
2022-09-09T15:44:28.462Z,100.00
2022-09-09T15:46:58.403Z,100.00
2022-09-09T15:49:28.642Z,100.00
2022-09-09T15:52:02.215Z,100.00
2022-09-09T15:54:35.423Z,100.00
2022-09-09T15:57:07.792Z,100.00
2022-09-09T15:59:37.831Z,100.00
2022-09-09T16:02:07.907Z,100.00
2022-09-09T16:04:38.647Z,100.00
2022-09-09T16:07:08.661Z,100.00
2022-09-09T16:09:38.789Z,100.00
2022-09-09T16:12:10.201Z,100.00
2022-09-09T16:14:41.612Z,100.00
2022-09-09T16:17:12.128Z,100.00
2022-09-09T16:19:40.930Z,100.00
2022-09-09T16:22:10.412Z,100.00
2022-09-09T16:24:40.468Z,100.00
2022-09-09T16:27:10.256Z,100.00
2022-09-09T16:29:40.202Z,100.00
2022-09-09T16:32:10.078Z,100.00
2022-09-09T16:34:39.703Z,100.00
2022-09-09T16:37:09.276Z,100.00
2022-09-09T16:39:39.123Z,100.00
2022-09-09T16:42:08.878Z,100.00
2022-09-09T16:44:38.660Z,100.00
2022-09-09T16:47:08.370Z,100.00
2022-09-09T16:49:38.323Z,100.00
2022-09-09T16:52:07.823Z,100.00
2022-09-09T16:54:37.599Z,100.00
2022-09-09T16:57:07.792Z,100.00
2022-09-09T16:59:38.136Z,100.00
2022-09-09T17:02:09.616Z,100.00
2022-09-09T17:04:41.209Z,100.00
2022-09-09T17:07:11.511Z,100.00
2022-09-09T17:09:41.322Z,100.00
2022-09-09T17:12:12.767Z,100.00
2022-09-09T17:14:41.540Z,100.00
2022-09-09T17:17:30.669Z,100.00
2022-09-09T17:19:41.741Z,100.00
2022-09-09T17:22:17.323Z,100.00
2022-09-09T17:24:45.632Z,100.00
2022-09-09T17:27:15.606Z,100.00
2022-09-09T17:29:45.762Z,100.00
2022-09-09T17:32:15.978Z,100.00
2022-09-09T17:34:46.923Z,100.00
2022-09-09T17:37:16.642Z,100.00
2022-09-09T17:39:46.938Z,100.00
2022-09-09T17:42:16.519Z,100.00
2022-09-09T17:44:46.368Z,100.00
2022-09-09T17:47:15.913Z,100.00
2022-09-09T17:49:45.822Z,100.00
2022-09-09T17:52:16.968Z,100.00
2022-09-09T17:54:46.667Z,100.00
2022-09-09T17:57:17.831Z,100.00
2022-09-09T17:59:47.484Z,100.00
2022-09-09T18:02:17.507Z,100.00
2022-09-09T18:04:47.428Z,100.00
2022-09-09T18:07:16.987Z,100.00
2022-09-09T18:09:47.053Z,100.00
2022-09-09T18:12:17.158Z,100.00
2022-09-09T18:14:51.679Z,100.00
2022-09-09T18:17:21.347Z,100.00
2022-09-09T18:19:51.209Z,100.00
2022-09-09T18:22:20.874Z,100.00
2022-09-09T18:24:51.850Z,100.00
2022-09-09T18:27:21.384Z,100.00
2022-09-09T18:29:51.218Z,100.00
2022-09-09T18:32:21.340Z,100.00
2022-09-09T18:34:55.393Z,100.00
2022-09-09T18:37:22.774Z,100.00
2022-09-09T18:39:53.423Z,100.00
2022-09-09T18:42:22.946Z,100.00
2022-09-09T18:44:53.117Z,100.00
2022-09-09T18:47:24.635Z,100.00
2022-09-09T18:49:54.494Z,100.00
2022-09-09T18:52:25.131Z,100.00
2022-09-09T18:54:55.008Z,100.00
2022-09-09T18:57:24.589Z,100.00
2022-09-09T18:59:55.554Z,100.00
2022-09-09T19:02:25.543Z,100.00
2022-09-09T19:04:55.987Z,100.00
2022-09-09T19:07:25.928Z,100.00
2022-09-09T19:09:55.770Z,100.00
2022-09-09T19:12:25.337Z,100.00
2022-09-09T19:14:55.206Z,100.00
2022-09-09T19:17:26.135Z,100.00
2022-09-09T19:19:55.989Z,100.00
2022-09-09T19:22:26.521Z,100.00
2022-09-09T19:24:56.582Z,100.00
2022-09-09T19:27:27.447Z,100.00
2022-09-09T19:29:57.250Z,100.00
2022-09-09T19:32:52.278Z,100.00
2022-09-09T19:34:58.631Z,100.00
2022-09-09T19:37:31.665Z,100.00
2022-09-09T19:40:01.578Z,100.00
2022-09-09T19:42:32.136Z,100.00
2022-09-09T19:45:01.677Z,100.00
2022-09-09T19:47:31.627Z,100.00
2022-09-09T19:50:02.141Z,100.00
2022-09-09T19:52:32.441Z,100.00
2022-09-09T19:55:02.217Z,100.00
2022-09-09T19:57:31.993Z,100.00
2022-09-09T20:00:02.160Z,100.00
2022-09-09T20:02:33.988Z,100.00
2022-09-09T20:05:03.837Z,100.00
2022-09-09T20:07:33.912Z,100.00
2022-09-09T20:10:03.759Z,100.00
2022-09-09T20:12:33.478Z,100.00
2022-09-09T20:15:03.514Z,100.00
2022-09-09T20:17:33.315Z,100.00
2022-09-09T20:20:04.057Z,100.00
2022-09-09T20:22:33.849Z,100.00
2022-09-09T20:25:04.061Z,100.00
2022-09-09T20:27:33.954Z,100.00
2022-09-09T20:30:05.049Z,100.00
2022-09-09T20:32:34.744Z,100.00
2022-09-09T20:35:04.591Z,100.00
2022-09-09T20:37:34.161Z,100.00
2022-09-09T20:40:04.303Z,100.00
2022-09-09T20:42:34.272Z,100.00
2022-09-09T20:45:03.906Z,100.00
2022-09-09T20:47:33.601Z,100.00
2022-09-09T20:50:03.451Z,100.00
2022-09-09T20:52:33.246Z,100.00
2022-09-09T20:55:03.207Z,100.00
2022-09-09T20:57:33.337Z,100.00
2022-09-09T21:00:03.875Z,100.00
2022-09-09T21:02:32.713Z,100.00
2022-09-09T21:05:02.285Z,100.00
2022-09-09T21:07:32.742Z,100.00
2022-09-09T21:10:02.789Z,100.00
2022-09-09T21:12:32.650Z,100.00
2022-09-09T21:15:02.892Z,100.00
2022-09-09T21:17:33.522Z,100.00
2022-09-09T21:20:03.084Z,100.00
2022-09-09T21:22:33.156Z,100.00
2022-09-09T21:25:02.944Z,100.00
2022-09-09T21:27:32.740Z,100.00
2022-09-09T21:30:03.171Z,100.00
2022-09-09T21:32:32.825Z,100.00
2022-09-09T21:35:02.699Z,100.00
2022-09-09T21:37:32.499Z,100.00
2022-09-09T21:40:02.467Z,100.00
2022-09-09T21:42:32.510Z,100.00
2022-09-09T21:45:02.304Z,100.00
2022-09-09T21:47:34.818Z,100.00
2022-09-09T21:50:05.037Z,100.00
2022-09-09T21:52:34.902Z,100.00
2022-09-09T21:55:05.199Z,100.00
2022-09-09T21:57:35.332Z,100.00
2022-09-09T22:00:10.264Z,100.00
2022-09-09T22:02:41.907Z,100.00
2022-09-09T22:05:11.680Z,100.00
2022-09-09T22:07:41.745Z,100.00
2022-09-09T22:10:12.281Z,100.00
2022-09-09T22:12:42.075Z,100.00
2022-09-09T22:15:11.631Z,100.00
2022-09-09T22:17:41.723Z,100.00
2022-09-09T22:20:12.202Z,100.00
2022-09-09T22:22:42.102Z,100.00
2022-09-09T22:25:12.002Z,100.00
2022-09-09T22:27:41.730Z,100.00
2022-09-09T22:30:12.112Z,100.00
2022-09-09T22:32:42.179Z,100.00
2022-09-09T22:35:12.855Z,100.00
2022-09-09T22:37:43.666Z,100.00
2022-09-09T22:40:14.420Z,100.00
2022-09-09T22:42:45.929Z,100.00
2022-09-09T22:45:16.307Z,100.00
2022-09-09T22:47:46.102Z,100.00
2022-09-09T22:50:15.666Z,100.00
2022-09-09T22:52:45.829Z,100.00
2022-09-09T22:55:15.601Z,100.00
2022-09-09T22:57:45.495Z,100.00
2022-09-09T23:00:15.906Z,100.00
2022-09-09T23:02:47.630Z,100.00
2022-09-09T23:05:19.931Z,100.00
2022-09-09T23:07:50.267Z,100.00
2022-09-09T23:10:21.059Z,100.00
2022-09-09T23:12:50.838Z,100.00
2022-09-09T23:15:20.432Z,100.00
2022-09-09T23:17:51.866Z,100.00
2022-09-09T23:20:22.255Z,100.00
2022-09-09T23:22:52.043Z,100.00
2022-09-09T23:25:22.883Z,100.00
2022-09-09T23:27:51.729Z,100.00
2022-09-09T23:30:21.614Z,100.00
2022-09-09T23:32:51.739Z,100.00
2022-09-09T23:35:21.409Z,100.00
2022-09-09T23:37:52.029Z,100.00
2022-09-09T23:40:23.068Z,100.00
2022-09-09T23:42:53.911Z,100.00
2022-09-09T23:45:23.952Z,100.00
2022-09-09T23:47:55.763Z,100.00
2022-09-09T23:50:25.542Z,100.00
2022-09-09T23:52:55.356Z,100.00
2022-09-09T23:55:24.894Z,100.00
2022-09-09T23:57:55.424Z,100.00
